Time;durP1;ratioP1;P1;durP2;ratioP2;P2;SDS_P1;SDS_P2;PMS_P1;PMS_P2;Temp;Humidity;BMP_temperature;BMP_pressure;BME280_temperature;BME280_humidity;BME280_pressure;Samples;Min_cycle;Max_cycle;Signal;HPM_P1;HPM_P2
2023/06/22 00:00:26;;;;;;;6.30;4.50;;;;;;;17.92;78.52;99241.67;108928;1260;72649;-23
2023/06/22 00:02:54;;;;;;;5.70;4.80;;;;;;;18.41;76.89;99240.95;108926;1259;58826;-23
2023/06/22 00:05:22;;;;;;;7.50;5.30;;;;;;;18.39;75.96;99240.06;109034;1260;58793;-23
2023/06/22 00:07:50;;;;;;;7.90;5.60;;;;;;;18.13;76.31;99246.15;108968;1259;73010;-23
2023/06/22 00:10:17;;;;;;;9.60;6.00;;;;;;;17.83;77.47;99245.33;108965;1259;73339;-23
2023/06/22 00:12:45;;;;;;;6.50;5.80;;;;;;;17.61;78.13;99249.30;108977;1259;72672;-23
2023/06/22 00:15:12;;;;;;;7.00;5.80;;;;;;;17.38;78.73;99246.42;108903;1260;60071;-23
2023/06/22 00:17:40;;;;;;;5.30;4.40;;;;;;;17.18;79.25;99249.06;108954;1259;58730;-23
2023/06/22 00:20:10;;;;;;;5.70;4.30;;;;;;;17.61;78.48;99250.63;108986;1259;71776;-23
2023/06/22 00:22:38;;;;;;;6.60;4.50;;;;;;;18.09;77.00;99247.77;108944;1259;73188;-23
2023/06/22 00:25:07;;;;;;;6.10;5.30;;;;;;;18.15;76.42;99247.16;109006;1260;72725;-23
2023/06/22 00:27:35;;;;;;;7.30;5.70;;;;;;;17.96;76.36;99250.59;108963;1258;60059;-23
2023/06/22 00:30:03;;;;;;;8.00;6.40;;;;;;;17.68;76.77;99256.71;108848;1259;58766;-23
2023/06/22 00:32:30;;;;;;;7.70;6.00;;;;;;;17.38;77.79;99254.32;108918;1260;73031;-23
2023/06/22 00:34:58;;;;;;;6.10;4.50;;;;;;;17.13;78.74;99254.67;108946;1260;74347;-23
2023/06/22 00:37:29;;;;;;;7.50;4.40;;;;;;;17.44;79.30;99249.28;108927;1260;72623;-23
2023/06/22 00:39:57;;;;;;;5.90;5.30;;;;;;;17.87;77.78;99242.73;108958;1262;60050;-23
2023/06/22 00:42:24;;;;;;;7.90;6.10;;;;;;;17.86;77.34;99239.70;108988;1260;59110;-23
2023/06/22 00:44:53;;;;;;;6.90;5.40;;;;;;;17.69;77.60;99233.46;108971;1260;73046;-23
2023/06/22 00:47:20;;;;;;;7.20;5.50;;;;;;;17.43;77.81;99231.02;108964;1259;74295;-23
2023/06/22 00:49:50;;;;;;;7.80;5.70;;;;;;;17.16;78.44;99224.78;108906;1260;72674;-23
2023/06/22 00:52:27;;;;;;;4.60;4.00;;;;;;;16.93;79.06;99223.98;108870;1260;60447;-23
2023/06/22 00:54:56;;;;;;;5.10;3.80;;;;;;;17.32;79.26;99219.32;108944;1260;58748;-23
2023/06/22 00:57:27;;;;;;;4.60;4.20;;;;;;;17.73;77.75;99216.91;108980;1260;73021;-23
2023/06/22 00:59:55;;;;;;;7.70;4.70;;;;;;;17.70;77.25;99211.71;108961;1260;73195;-23
2023/06/22 01:02:23;;;;;;;6.40;5.00;;;;;;;17.48;77.53;99209.52;108933;1260;71442;-23
2023/06/22 01:04:51;;;;;;;6.40;5.40;;;;;;;17.23;78.23;99208.73;108947;1260;60132;-23
2023/06/22 01:07:46;;;;;;;7.60;6.00;;;;;;;16.99;78.71;99211.80;108915;1265;60024;-23
2023/06/22 01:10:25;;;;;;;8.50;4.30;;;;;;;16.80;79.95;99216.65;108967;1260;73061;-23
2023/06/22 01:12:55;;;;;;;8.00;7.00;;;;;;;17.35;79.52;99218.13;108815;1268;73250;-23
2023/06/22 01:15:36;;;;;;;9.70;6.70;;;;;;;17.75;77.89;99218.59;108794;1260;71452;-23
2023/06/22 01:18:04;;;;;;;6.40;5.80;;;;;;;17.71;76.90;99217.08;108879;1263;60115;-23
2023/06/22 01:20:33;;;;;;;8.10;5.60;;;;;;;17.49;76.63;99220.29;108952;1260;60008;-23
2023/06/22 01:23:27;;;;;;;8.80;5.60;;;;;;;17.22;77.02;99216.40;108914;1260;71810;-23
2023/06/22 01:26:30;;;;;;;7.60;5.50;;;;;;;16.84;77.19;99227.02;108901;1260;74582;-23
2023/06/22 01:28:58;;;;;;;6.20;4.80;;;;;;;16.60;79.22;99228.09;108828;1260;70618;-23
2023/06/22 01:31:29;;;;;;;10.20;4.90;;;;;;;17.07;79.55;99224.58;108879;1260;58815;-23
2023/06/22 01:33:59;;;;;;;6.10;5.40;;;;;;;17.45;78.59;99222.21;108908;1260;60073;-23
2023/06/22 01:36:27;;;;;;;7.30;6.60;;;;;;;17.42;78.22;99228.14;108826;1260;73079;-23
2023/06/22 01:38:54;;;;;;;7.10;6.40;;;;;;;17.23;78.33;99231.52;108959;1260;74394;-23
2023/06/22 01:41:24;;;;;;;7.20;6.50;;;;;;;16.97;78.38;99233.03;108916;1260;71507;-23
2023/06/22 01:43:52;;;;;;;9.40;6.70;;;;;;;16.73;79.12;99234.09;108803;1260;58719;-23
2023/06/22 01:46:20;;;;;;;4.40;3.90;;;;;;;16.52;79.59;99234.13;108799;1260;60067;-23
2023/06/22 01:48:48;;;;;;;7.60;4.90;;;;;;;16.86;79.62;99234.19;108908;1260;73955;-23
2023/06/22 01:51:15;;;;;;;7.30;6.20;;;;;;;17.26;78.32;99232.42;108900;1260;73077;-23
2023/06/22 01:53:43;;;;;;;11.70;6.30;;;;;;;17.25;77.56;99231.70;108904;1260;72636;-23
2023/06/22 01:56:11;;;;;;;9.80;6.50;;;;;;;16.99;77.44;99239.81;108890;1261;58893;-23
2023/06/22 01:58:43;;;;;;;10.20;6.90;;;;;;;16.64;78.46;99242.17;108901;1262;59998;-23
2023/06/22 02:01:12;;;;;;;8.70;7.40;;;;;;;16.36;79.58;99243.52;108765;1260;73857;-23
2023/06/22 02:03:42;;;;;;;10.00;4.50;;;;;;;16.13;80.66;99244.27;108891;1263;73090;-23
2023/06/22 02:06:17;;;;;;;9.50;5.30;;;;;;;16.49;80.21;99245.68;108862;1261;72697;-23
2023/06/22 02:08:54;;;;;;;8.50;5.60;;;;;;;16.90;78.52;99244.44;108816;1260;59105;-23
2023/06/22 02:11:22;;;;;;;7.60;6.50;;;;;;;16.81;77.89;99242.23;108788;1263;60023;-23
2023/06/22 02:13:50;;;;;;;9.00;6.20;;;;;;;16.58;78.84;99244.42;108838;1261;73817;-23
2023/06/22 02:16:17;;;;;;;8.30;7.50;;;;;;;16.35;79.12;99242.85;108847;1260;74302;-23
2023/06/22 02:18:52;;;;;;;8.30;7.50;;;;;;;16.12;80.37;99239.77;108757;1260;72711;-23
2023/06/22 02:21:20;;;;;;;7.80;5.30;;;;;;;15.95;82.18;99234.45;108815;1261;61723;-23
2023/06/22 02:23:47;;;;;;;7.80;5.70;;;;;;;16.42;82.27;99231.65;108869;1261;60031;-23
2023/06/22 02:26:16;;;;;;;8.30;5.50;;;;;;;16.98;80.35;99229.91;108888;1262;73863;-23
2023/06/22 02:28:44;;;;;;;6.70;4.70;;;;;;;17.18;78.00;99233.87;108773;1260;73040;-23
2023/06/22 02:31:12;;;;;;;7.80;5.90;;;;;;;17.13;76.34;99231.76;108813;1263;72666;-23
2023/06/22 02:33:40;;;;;;;8.50;7.50;;;;;;;17.08;76.72;99228.12;108900;1260;58832;-23
2023/06/22 02:36:08;;;;;;;9.40;6.30;;;;;;;17.09;77.30;99235.23;108928;1261;58812;-23
2023/06/22 02:38:36;;;;;;;15.30;6.70;;;;;;;17.02;76.91;99235.10;108943;1261;72537;-23
2023/06/22 02:41:04;;;;;;;5.90;5.00;;;;;;;16.95;77.64;99234.92;108854;1263;74322;-23
2023/06/22 02:43:31;;;;;;;6.80;5.00;;;;;;;17.59;77.67;99232.82;108887;1263;71520;-23
2023/06/22 02:45:59;;;;;;;8.10;6.00;;;;;;;18.38;75.55;99232.80;108882;1263;60049;-23
2023/06/22 02:48:26;;;;;;;8.20;7.20;;;;;;;18.72;73.83;99231.46;108946;1260;58991;-23
2023/06/22 02:50:54;;;;;;;8.80;6.60;;;;;;;18.86;73.11;99232.77;108894;1261;73923;-24
2023/06/22 02:53:22;;;;;;;10.10;6.90;;;;;;;18.94;72.13;99235.26;108928;1260;74307;-23
2023/06/22 02:55:50;;;;;;;8.30;7.20;;;;;;;18.96;71.88;99234.81;108814;1263;72656;-23
2023/06/22 02:58:17;;;;;;;9.90;7.10;;;;;;;18.97;71.47;99236.65;108891;1263;60692;-23
2023/06/22 03:00:45;;;;;;;7.20;5.30;;;;;;;19.00;71.69;99240.11;108779;1267;59689;-23
2023/06/22 03:03:13;;;;;;;8.70;5.50;;;;;;;19.63;71.06;99241.80;108884;1263;72622;-23
2023/06/22 03:05:40;;;;;;;13.50;8.80;;;;;;;20.38;68.95;99247.19;108897;1261;74345;-23
2023/06/22 03:08:08;;;;;;;26.90;17.70;;;;;;;20.70;67.57;99250.22;108873;1262;72725;-23
2023/06/22 03:10:36;;;;;;;12.00;8.80;;;;;;;20.73;66.78;99251.14;108814;1262;60052;-23
2023/06/22 03:13:04;;;;;;;13.70;10.60;;;;;;;20.66;66.69;99252.48;109081;1257;60040;-23
2023/06/22 03:15:32;;;;;;;13.60;10.70;;;;;;;20.45;66.77;99252.65;109072;1258;73937;-23
2023/06/22 03:18:00;;;;;;;12.20;8.30;;;;;;;20.26;67.83;99257.05;109006;1257;73562;-24
2023/06/22 03:20:33;;;;;;;10.70;8.30;;;;;;;20.29;68.27;99256.14;109014;1257;72622;-23
2023/06/22 03:23:01;;;;;;;15.60;9.90;;;;;;;20.35;68.04;99257.16;108943;1257;60117;-23
2023/06/22 03:25:29;;;;;;;7.70;5.50;;;;;;;20.27;68.63;99261.42;109075;1258;60019;-23
2023/06/22 03:27:56;;;;;;;12.50;6.30;;;;;;;20.83;68.93;99260.98;109134;1258;73211;-23
2023/06/22 03:30:25;;;;;;;10.40;7.10;;;;;;;21.49;66.94;99255.11;109055;1257;74522;-24
2023/06/22 03:32:53;;;;;;;11.60;7.20;;;;;;;21.83;65.88;99257.96;109054;1257;72708;-24
2023/06/22 03:35:20;;;;;;;21.30;8.80;;;;;;;22.03;65.51;99262.00;109019;1257;58813;-23
2023/06/22 03:37:48;;;;;;;9.30;7.60;;;;;;;22.11;64.86;99263.06;109113;1257;60157;-23
2023/06/22 03:40:16;;;;;;;9.60;7.80;;;;;;;22.15;64.73;99261.56;109030;1257;73850;-23
2023/06/22 03:42:44;;;;;;;10.80;8.70;;;;;;;22.27;64.98;99257.36;109054;1257;74313;-23
2023/06/22 03:45:11;;;;;;;9.10;8.20;;;;;;;22.40;64.59;99253.09;109018;1257;70872;-23
2023/06/22 03:47:39;;;;;;;11.20;7.80;;;;;;;22.54;64.27;99253.49;109050;1260;60099;-23
2023/06/22 03:50:07;;;;;;;13.70;9.10;;;;;;;22.65;63.96;99247.91;109055;1260;58733;-23
2023/06/22 03:52:35;;;;;;;10.30;7.90;;;;;;;22.78;63.78;99246.84;108996;1257;74320;-23
2023/06/22 03:55:03;;;;;;;9.30;7.70;;;;;;;22.92;63.24;99248.44;109057;1257;74319;-23
2023/06/22 03:57:33;;;;;;;11.40;8.00;;;;;;;23.01;63.14;99249.17;108858;1265;71470;-24
2023/06/22 04:00:05;;;;;;;12.10;7.60;;;;;;;23.08;62.73;99247.35;108984;1260;60321;-23
2023/06/22 04:02:39;;;;;;;12.80;8.10;;;;;;;23.19;62.42;99247.48;109043;1260;58831;-23
2023/06/22 04:05:09;;;;;;;8.80;7.70;;;;;;;23.26;62.18;99248.38;109022;1259;72624;-23
2023/06/22 04:07:39;;;;;;;11.80;8.30;;;;;;;23.34;62.75;99253.21;109027;1257;74342;-23
2023/06/22 04:10:10;;;;;;;13.70;8.80;;;;;;;23.48;62.47;99259.48;108983;1260;71481;-23
2023/06/22 04:12:54;;;;;;;10.10;9.00;;;;;;;23.34;62.32;99260.93;108977;1261;59137;-23
2023/06/22 04:15:24;;;;;;;8.30;7.40;;;;;;;23.24;63.57;99264.20;108939;1260;58837;-23
2023/06/22 04:17:54;;;;;;;8.50;7.70;;;;;;;23.26;63.17;99266.11;109000;1259;73856;-23
2023/06/22 04:20:28;;;;;;;15.00;8.00;;;;;;;23.21;63.47;99270.59;108978;1259;73702;-23
2023/06/22 04:22:58;;;;;;;9.90;8.40;;;;;;;23.16;63.69;99268.25;108956;1260;72500;-23
2023/06/22 04:25:30;;;;;;;13.00;9.10;;;;;;;22.75;62.57;99263.28;109010;1257;59065;-23
2023/06/22 04:28:03;;;;;;;11.00;9.40;;;;;;;22.53;63.65;99263.33;109051;1258;60892;-23
2023/06/22 04:30:33;;;;;;;10.30;8.20;;;;;;;22.43;63.31;99265.94;108863;1261;72869;-23
2023/06/22 04:33:05;;;;;;;8.90;7.50;;;;;;;22.24;64.86;99270.88;108926;1258;74314;-23
2023/06/22 04:35:35;;;;;;;10.40;7.80;;;;;;;22.17;66.07;99275.41;108954;1260;71350;-23
2023/06/22 04:38:04;;;;;;;10.00;8.10;;;;;;;22.34;65.99;99274.68;109019;1257;60579;-23
2023/06/22 04:40:36;;;;;;;11.70;8.20;;;;;;;22.61;65.62;99275.86;108975;1260;60017;-23
2023/06/22 04:43:06;;;;;;;9.20;8.10;;;;;;;23.00;64.13;99274.41;109023;1260;72105;-23
2023/06/22 04:45:39;;;;;;;11.20;7.70;;;;;;;23.19;62.54;99272.79;109011;1259;73196;-23
2023/06/22 04:48:09;;;;;;;10.70;7.70;;;;;;;23.03;62.68;99263.92;108989;1259;72689;-23
2023/06/22 04:50:39;;;;;;;8.10;7.00;;;;;;;23.07;62.73;99267.53;108991;1257;60188;-23
2023/06/22 04:53:09;;;;;;;8.20;7.30;;;;;;;23.11;63.11;99268.40;109032;1258;60029;-23
2023/06/22 05:02:32;;;;;;;7.70;6.60;;;;;;;23.52;63.34;99251.85;102619;1293;600201;-23
2023/06/22 05:05:00;;;;;;;7.90;6.80;;;;;;;23.68;60.90;99251.61;104869;1266;61177;-23
2023/06/22 05:07:28;;;;;;;8.30;5.90;;;;;;;23.56;60.09;99249.81;104810;1267;61167;-23
2023/06/22 05:09:55;;;;;;;6.60;5.90;;;;;;;23.56;59.75;99246.26;104832;1267;71326;-23
2023/06/22 05:12:23;;;;;;;6.70;5.70;;;;;;;23.32;60.67;99247.08;104822;1266;73396;-23
2023/06/22 05:22:30;;;;;;;7.00;6.30;;;;;;;23.83;61.90;99233.62;102664;1289;600372;-22
2023/06/22 05:24:58;;;;;;;7.60;6.30;;;;;;;24.04;60.99;99232.95;104884;1266;61146;-22
2023/06/22 05:27:25;;;;;;;7.20;6.30;;;;;;;24.25;60.51;99228.88;104856;1269;61252;-22
2023/06/22 05:29:53;;;;;;;7.40;6.20;;;;;;;24.60;60.31;99232.44;104825;1267;70972;-22
2023/06/22 05:32:21;;;;;;;7.20;6.60;;;;;;;24.82;59.53;99227.77;104770;1266;74310;-22
2023/06/22 05:34:48;;;;;;;8.40;6.90;;;;;;;25.00;60.74;99228.91;104767;1268;72464;-22
2023/06/22 05:37:16;;;;;;;8.40;6.50;;;;;;;25.34;60.48;99229.52;102915;1264;2562787;-22
2023/06/22 05:39:44;;;;;;;8.80;7.10;;;;;;;25.73;58.77;99228.67;105057;1268;61133;-22
2023/06/22 05:49:53;;;;;;;6.20;5.60;;;;;;;26.76;56.34;99239.77;102691;1293;600272;-23
2023/06/22 05:52:21;;;;;;;8.80;6.60;;;;;;;27.10;55.89;99242.45;105510;1263;61174;-23
2023/06/22 06:02:26;;;;;;;6.80;6.10;;;;;;;28.01;52.52;99241.33;102686;1290;600152;-22
2023/06/22 06:04:54;;;;;;;6.90;5.70;;;;;;;28.09;52.11;99237.69;104848;1266;61130;-22
2023/06/22 06:07:22;;;;;;;5.60;5.10;;;;;;;28.23;51.90;99235.11;104840;1266;61053;-22
2023/06/22 06:09:50;;;;;;;6.60;5.60;;;;;;;28.37;50.97;99241.16;104881;1270;70980;-22
2023/06/22 06:19:59;;;;;;;5.10;4.70;;;;;;;28.67;48.39;99242.70;102551;1292;600111;-22
2023/06/22 06:22:27;;;;;;;6.20;5.60;;;;;;;28.70;48.22;99247.28;104888;1266;61203;-22
2023/06/22 06:24:54;;;;;;;7.00;5.40;;;;;;;28.82;47.77;99243.28;104795;1267;61162;-22
2023/06/22 06:27:29;;;;;;;8.80;5.70;;;;;;;28.95;47.61;99247.00;104880;1266;72270;-22
2023/06/22 06:29:57;;;;;;;7.40;5.40;;;;;;;28.57;45.61;99251.98;104825;1271;74461;-22
2023/06/22 06:32:26;;;;;;;9.10;5.70;;;;;;;28.35;48.00;99260.92;104121;1267;2661037;-23
2023/06/22 06:34:54;;;;;;;6.10;5.50;;;;;;;28.44;47.32;99260.41;104864;1269;61291;-22
2023/06/22 06:37:22;;;;;;;5.90;4.90;;;;;;;28.58;46.41;99257.10;105030;1264;61209;-22
2023/06/22 06:39:50;;;;;;;12.30;5.70;;;;;;;28.68;46.44;99251.21;104984;1265;61179;-22
2023/06/22 06:42:19;;;;;;;6.00;5.30;;;;;;;28.38;47.38;99249.79;105021;1268;71115;-22
2023/06/22 06:44:47;;;;;;;5.30;4.80;;;;;;;28.54;47.63;99247.59;105215;1268;74836;-22
2023/06/22 06:54:53;;;;;;;7.90;5.40;;;;;;;28.57;47.10;99246.95;102674;1295;600245;-22
2023/06/22 06:57:21;;;;;;;8.80;5.20;;;;;;;28.07;47.65;99251.35;104821;1267;61167;-23
2023/06/22 06:59:49;;;;;;;6.80;5.90;;;;;;;27.83;45.85;99249.02;104873;1267;61726;-23
2023/06/22 07:02:17;;;;;;;6.60;5.50;;;;;;;27.61;46.93;99247.57;104797;1275;70961;-23
2023/06/22 07:12:29;;;;;;;6.10;5.30;;;;;;;27.56;47.44;99253.13;102608;1292;600220;-22
2023/06/22 07:15:04;;;;;;;5.70;5.20;;;;;;;27.05;47.26;99255.68;104823;1270;61196;-22
2023/06/22 07:25:13;;;;;;;5.80;5.00;;;;;;;27.19;49.44;99257.73;102704;1293;600112;-22
2023/06/22 07:28:06;;;;;;;9.70;5.60;;;;;;;27.44;48.12;99256.41;104827;1267;61307;-23
2023/06/22 07:30:34;;;;;;;17.40;6.50;;;;;;;27.44;48.54;99257.42;104812;1265;61219;-23
2023/06/22 07:40:41;;;;;;;6.30;5.20;;;;;;;27.33;47.38;99257.02;102647;1289;599493;-22
2023/06/22 07:43:09;;;;;;;6.60;5.50;;;;;;;27.19;47.59;99260.09;104864;1267;61120;-22
2023/06/22 07:45:39;;;;;;;5.50;5.00;;;;;;;27.18;47.71;99260.05;104883;1272;61122;-22
2023/06/22 07:48:07;;;;;;;6.10;5.50;;;;;;;27.22;48.60;99262.88;104760;1267;71020;-23
2023/06/22 07:50:35;;;;;;;8.90;5.30;;;;;;;27.14;47.26;99257.02;104812;1267;74270;-23
2023/06/22 07:53:02;;;;;;;5.80;5.10;;;;;;;27.04;48.88;99259.82;104838;1267;72610;-23
2023/06/22 07:55:30;;;;;;;7.20;5.40;;;;;;;26.87;47.86;99259.92;103243;1269;2666455;-23
2023/06/22 07:57:59;;;;;;;5.90;5.40;;;;;;;27.14;48.01;99261.23;105006;1267;61141;-23
2023/06/22 08:00:27;;;;;;;5.40;4.90;;;;;;;27.54;47.95;99258.67;104836;1267;72211;-23
2023/06/22 08:02:55;;;;;;;5.00;4.60;;;;;;;27.95;47.99;99253.77;105151;1264;74280;-23
2023/06/22 08:05:22;;;;;;;6.40;4.70;;;;;;;28.32;47.61;99253.86;105172;1264;72630;-23
2023/06/22 08:15:30;;;;;;;5.80;5.20;;;;;;;28.47;46.59;99252.55;103088;1289;599472;-22
2023/06/22 08:17:59;;;;;;;14.00;4.90;;;;;;;28.65;45.90;99253.30;104876;1270;61171;-23
2023/06/22 08:20:27;;;;;;;8.60;5.00;;;;;;;28.93;46.29;99250.79;105103;1269;61190;-23
2023/06/22 08:22:55;;;;;;;5.70;4.40;;;;;;;29.34;45.13;99249.43;104848;1269;72355;-23
2023/06/22 08:31:37;;;;;;;7.80;5.00;;;;;;;29.03;44.41;99253.37;102685;1293;599418;-22
2023/06/22 08:34:05;;;;;;;6.70;5.10;;;;;;;29.36;42.62;99253.05;105072;1267;61222;-22
2023/06/22 08:36:41;;;;;;;6.50;4.90;;;;;;;28.97;42.41;99253.42;105012;1269;61181;-22
2023/06/22 08:45:28;;;;;;;6.30;4.80;;;;;;;28.40;42.33;99251.72;102615;1292;600019;-22
2023/06/22 08:47:57;;;;;;;5.70;5.10;;;;;;;28.46;42.75;99248.99;104862;1267;61116;-22
2023/06/22 08:50:25;;;;;;;5.70;4.70;;;;;;;28.33;44.04;99246.13;104807;1267;61048;-22
2023/06/22 09:00:36;;;;;;;8.50;5.30;;;;;;;27.95;42.62;99246.30;102713;1290;599993;-22
2023/06/22 09:03:04;;;;;;;10.10;5.60;;;;;;;27.75;43.44;99243.38;105087;1265;61167;-22
2023/06/22 09:13:10;;;;;;;7.60;4.60;;;;;;;29.38;44.74;99233.55;102626;1292;599977;-22
2023/06/22 09:15:38;;;;;;;5.00;4.60;;;;;;;29.73;43.92;99236.33;104880;1271;61361;-23
2023/06/22 09:18:06;;;;;;;5.10;4.50;;;;;;;29.91;43.35;99235.27;104830;1271;61129;-23
2023/06/22 09:20:34;;;;;;;5.60;4.80;;;;;;;29.60;42.27;99235.95;104938;1270;72205;-23
2023/06/22 09:23:01;;;;;;;6.30;5.10;;;;;;;28.94;42.88;99239.43;104902;1267;73112;-23
2023/06/22 09:25:29;;;;;;;5.70;4.80;;;;;;;29.00;44.03;99236.10;104776;1271;71682;-23
2023/06/22 09:27:58;;;;;;;6.90;5.20;;;;;;;29.02;42.10;99235.23;103195;1265;2592086;-23
2023/06/22 09:30:25;;;;;;;5.50;5.00;;;;;;;28.81;41.76;99231.07;105222;1261;61122;-23
2023/06/22 09:32:54;;;;;;;5.20;4.70;;;;;;;28.81;43.23;99233.42;105149;1259;70983;-23
2023/06/22 09:35:22;;;;;;;5.20;4.70;;;;;;;29.04;44.19;99234.39;105259;1261;74335;-23
2023/06/22 09:37:49;;;;;;;5.50;4.60;;;;;;;29.58;43.97;99236.11;105055;1266;71405;-23
2023/06/22 09:47:55;;;;;;;5.60;4.90;;;;;;;30.13;43.12;99223.27;102578;1291;600330;-23
2023/06/22 09:50:23;;;;;;;5.70;5.10;;;;;;;30.39;41.38;99227.17;104830;1271;61244;-23
2023/06/22 09:52:54;;;;;;;8.20;5.30;;;;;;;30.06;41.33;99226.09;104811;1266;61056;-23
2023/06/22 09:55:22;;;;;;;5.50;4.90;;;;;;;30.40;42.47;99222.19;104852;1271;63314;-23
2023/06/22 09:57:50;;;;;;;6.80;5.10;;;;;;;30.61;42.29;99223.17;104773;1269;64128;-23
2023/06/22 10:00:18;;;;;;;4.70;4.20;;;;;;;30.71;44.00;99220.95;104739;1271;66309;-23
2023/06/22 10:02:46;;;;;;;5.00;4.60;;;;;;;30.51;42.86;99218.39;102850;1266;61280;-23
2023/06/22 10:05:14;;;;;;;5.20;4.70;;;;;;;30.48;40.37;99220.05;104850;1266;61137;-23
2023/06/22 10:15:21;;;;;;;6.30;4.80;;;;;;;31.15;39.05;99204.95;102585;1291;600214;-22
2023/06/22 10:17:48;;;;;;;5.50;4.90;;;;;;;30.61;39.92;99208.44;104807;1266;62415;-22
2023/06/22 10:20:18;;;;;;;5.30;4.70;;;;;;;30.39;40.63;99208.53;104830;1266;61072;-22
2023/06/22 10:22:46;;;;;;;5.40;4.90;;;;;;;29.71;41.00;99209.56;104784;1273;73519;-22
2023/06/22 10:25:13;;;;;;;5.20;4.70;;;;;;;29.90;41.05;99210.41;104893;1265;73177;-22
2023/06/22 10:27:41;;;;;;;5.00;4.50;;;;;;;30.47;41.73;99208.58;104729;1265;62515;-22
2023/06/22 10:30:12;;;;;;;7.50;4.60;;;;;;;30.69;40.21;99208.74;103300;1263;2601189;-22
2023/06/22 10:32:42;;;;;;;5.10;4.60;;;;;;;30.83;40.70;99209.46;104898;1266;61061;-22
2023/06/22 10:35:10;;;;;;;4.90;4.50;;;;;;;31.03;41.66;99207.26;104893;1266;65178;-22
2023/06/22 10:37:38;;;;;;;6.50;5.10;;;;;;;30.83;40.33;99203.75;105181;1267;64942;-22
2023/06/22 10:40:08;;;;;;;5.70;5.10;;;;;;;30.27;40.47;99199.38;104916;1266;72717;-22
2023/06/22 10:42:35;;;;;;;5.50;4.90;;;;;;;30.00;40.72;99201.25;104878;1266;61165;-22
2023/06/22 10:45:04;;;;;;;5.50;5.00;;;;;;;29.58;41.67;99202.79;105109;1266;61106;-22
2023/06/22 10:47:31;;;;;;;7.20;5.10;;;;;;;29.39;41.71;99203.77;104921;1271;72369;-22
2023/06/22 10:49:59;;;;;;;7.70;4.60;;;;;;;29.34;43.15;99200.89;104839;1265;73106;-23
2023/06/22 10:52:27;;;;;;;5.50;5.00;;;;;;;29.35;42.83;99199.94;105143;1268;72640;-22
2023/06/22 10:54:54;;;;;;;6.00;5.10;;;;;;;29.14;42.93;99199.92;105117;1268;61197;-22
2023/06/22 10:57:23;;;;;;;7.40;4.80;;;;;;;29.04;43.70;99200.52;104797;1264;61186;-22
2023/06/22 10:59:50;;;;;;;8.70;5.40;;;;;;;29.27;44.61;99201.05;104807;1269;71987;-22
2023/06/22 11:02:18;;;;;;;5.90;4.50;;;;;;;29.67;44.63;99198.57;104808;1268;74485;-22
2023/06/22 11:04:47;;;;;;;8.90;4.80;;;;;;;30.01;42.07;99197.15;104936;1266;72752;-22
2023/06/22 11:07:15;;;;;;;5.20;4.30;;;;;;;29.06;41.73;99201.48;104948;1266;61345;-22
2023/06/22 11:09:43;;;;;;;6.10;5.30;;;;;;;28.30;42.70;99203.33;104843;1266;61030;-22
2023/06/22 11:12:11;;;;;;;5.60;5.00;;;;;;;28.16;43.72;99196.69;104850;1270;74121;-22
2023/06/22 11:14:39;;;;;;;5.10;4.60;;;;;;;28.12;46.07;99201.41;104992;1265;74816;-22
2023/06/22 11:17:07;;;;;;;6.20;4.70;;;;;;;28.14;45.48;99198.20;104882;1266;72628;-22
2023/06/22 11:19:35;;;;;;;5.50;5.00;;;;;;;28.04;45.08;99194.55;104871;1268;61164;-22
2023/06/22 11:22:02;;;;;;;9.30;5.40;;;;;;;28.38;44.71;99188.90;104949;1266;61976;-22
2023/06/22 11:24:30;;;;;;;5.30;4.80;;;;;;;28.83;46.17;99190.32;104975;1268;72048;-22
2023/06/22 11:26:58;;;;;;;5.60;4.90;;;;;;;29.23;44.15;99189.34;104913;1268;73184;-22
2023/06/22 11:29:26;;;;;;;6.20;4.90;;;;;;;29.53;44.63;99187.06;105167;1263;72638;-22
2023/06/22 11:32:14;;;;;;;5.50;4.30;;;;;;;29.80;44.78;99184.42;105015;1267;61190;-22
2023/06/22 11:34:42;;;;;;;5.50;5.00;;;;;;;30.02;44.00;99182.61;104976;1264;61058;-22
2023/06/22 11:37:09;;;;;;;5.30;4.80;;;;;;;29.99;43.43;99183.27;104866;1268;71941;-22
2023/06/22 11:39:37;;;;;;;5.50;4.40;;;;;;;29.81;43.47;99178.41;104945;1263;76571;-22
2023/06/22 11:42:09;;;;;;;5.20;4.70;;;;;;;30.17;43.92;99181.23;104942;1263;71439;-22
2023/06/22 11:44:37;;;;;;;4.70;4.20;;;;;;;30.73;42.09;99178.25;104904;1261;61235;-22
2023/06/22 11:47:05;;;;;;;9.80;4.80;;;;;;;30.57;40.30;99171.16;105086;1265;61173;-22
2023/06/22 11:49:33;;;;;;;5.10;4.60;;;;;;;30.26;39.64;99170.30;105205;1263;74309;-22
2023/06/22 11:52:49;;;;;;;9.20;4.70;;;;;;;29.81;40.87;99168.27;102643;1294;601135;-22
2023/06/22 11:55:17;;;;;;;6.30;4.80;;;;;;;29.97;41.69;99169.88;104837;1270;61199;-22
2023/06/22 11:57:56;;;;;;;5.10;4.60;;;;;;;30.23;40.00;99161.69;104757;1267;61024;-22
2023/06/22 12:00:24;;;;;;;4.30;3.90;;;;;;;30.16;40.11;99157.05;104717;1274;74573;-22
2023/06/22 12:02:56;;;;;;;10.30;4.20;;;;;;;29.97;38.27;99155.10;104783;1267;74966;-23
2023/06/22 12:05:27;;;;;;;5.80;5.20;;;;;;;29.68;38.33;99155.83;102786;1267;2765017;-22
2023/06/22 12:15:32;;;;;;;6.50;4.90;;;;;;;30.46;40.92;99146.30;103017;1287;599954;-22
2023/06/22 12:18:01;;;;;;;5.50;4.30;;;;;;;30.57;39.62;99142.64;105068;1267;61114;-22
2023/06/22 12:20:29;;;;;;;6.40;4.60;;;;;;;30.49;38.70;99137.80;105078;1265;61078;-22
2023/06/22 12:22:58;;;;;;;5.00;4.50;;;;;;;30.03;38.96;99139.17;104828;1265;73610;-23
2023/06/22 12:25:25;;;;;;;5.10;4.60;;;;;;;29.76;39.88;99142.79;104915;1270;73096;-22
2023/06/22 12:27:53;;;;;;;4.80;4.30;;;;;;;29.46;40.16;99141.80;105017;1279;72027;-23
2023/06/22 12:30:21;;;;;;;4.80;4.20;;;;;;;29.15;40.22;99141.52;103094;1267;2883644;-23
2023/06/22 12:32:50;;;;;;;4.90;4.20;;;;;;;29.00;40.79;99135.33;105170;1264;62302;-22
2023/06/22 12:35:20;;;;;;;4.90;4.40;;;;;;;29.38;41.59;99132.04;105225;1267;70563;-23
2023/06/22 12:37:48;;;;;;;5.30;4.50;;;;;;;29.74;40.29;99126.87;105208;1275;73226;-23
2023/06/22 12:47:53;;;;;;;5.30;4.50;;;;;;;29.49;40.21;99118.04;102641;1292;600363;-22
2023/06/22 12:57:59;;;;;;;5.20;4.70;;;;;;;29.93;38.92;99099.18;102601;1292;600122;-22
2023/06/22 13:00:26;;;;;;;5.10;4.60;;;;;;;29.79;36.84;99100.69;104849;1266;61186;-22
2023/06/22 13:02:55;;;;;;;6.20;4.50;;;;;;;29.92;37.84;99090.91;104918;1265;61072;-22
2023/06/22 13:05:23;;;;;;;5.20;4.70;;;;;;;29.97;37.92;99092.48;104910;1270;72216;-22
2023/06/22 13:15:33;;;;;;;5.40;4.40;;;;;;;29.35;37.62;99096.45;102666;1292;600107;-23
2023/06/22 13:18:01;;;;;;;5.30;4.80;;;;;;;29.72;38.12;99099.59;104906;1279;61270;-22
2023/06/22 13:20:29;;;;;;;5.90;4.40;;;;;;;30.13;37.84;99100.70;104860;1269;61657;-22
2023/06/22 13:22:57;;;;;;;5.90;4.40;;;;;;;30.25;36.93;99097.42;104821;1271;72963;-23
2023/06/22 13:25:26;;;;;;;5.50;4.80;;;;;;;30.28;35.98;99096.38;104877;1269;64181;-23
2023/06/22 13:35:32;;;;;;;6.70;4.90;;;;;;;28.94;39.63;99104.59;102642;1292;600168;-22
2023/06/22 13:38:01;;;;;;;6.50;4.30;;;;;;;29.04;40.92;99108.80;104808;1272;61158;-23
2023/06/22 13:40:28;;;;;;;5.00;4.40;;;;;;;29.18;38.91;99104.30;104871;1266;61190;-23
2023/06/22 13:42:56;;;;;;;5.20;4.70;;;;;;;29.29;39.76;99105.30;104777;1272;71105;-25
2023/06/22 13:45:24;;;;;;;5.60;4.60;;;;;;;29.53;39.35;99098.17;104845;1267;73111;-24
2023/06/22 13:47:52;;;;;;;6.10;4.50;;;;;;;29.77;39.43;99096.70;104723;1272;72651;-24
2023/06/22 13:50:20;;;;;;;5.20;4.60;;;;;;;29.70;38.57;99098.77;102917;1264;2731188;-23
2023/06/22 13:52:47;;;;;;;5.30;4.80;;;;;;;29.26;38.95;99090.30;105024;1269;61030;-24
2023/06/22 13:55:15;;;;;;;5.50;4.60;;;;;;;29.27;37.99;99089.77;105071;1263;71025;-22
2023/06/22 13:57:43;;;;;;;5.70;4.60;;;;;;;29.33;38.24;99088.45;104973;1266;75503;-21
2023/06/22 14:00:14;;;;;;;4.90;4.40;;;;;;;29.42;38.10;99085.27;105474;1262;73090;-22
2023/06/22 14:02:42;;;;;;;4.50;4.10;;;;;;;29.55;39.64;99090.00;105307;1260;61234;-24
2023/06/22 14:05:11;;;;;;;5.00;4.50;;;;;;;29.68;39.97;99095.63;105303;1257;61156;-23
2023/06/22 14:07:39;;;;;;;4.70;4.20;;;;;;;29.67;38.10;99100.81;105361;1264;73023;-23